GGZDO EGPA-EGET
Flight info
| Callsign | GGZDO |
|---|---|
| Flight time | 0h 52m |
| Altitude | 5500 |
| Route | DCT |
| Aircraft | C172/L-V/N |
Departure
| Time | 2026-05-01 14:16 |
|---|---|
| Airport | Kirkwall Airport (EGPA) |
Arrival
| Time | 2026-05-01 15:09 |
|---|---|
| Airport | Lerwick / Tingwall Airport (EGET) |
| Time | Latitude | Longitude | Altitude | Speed | Heading |
|---|---|---|---|---|---|
| 2026-05-01 14:04 | 58.95454 | -2.90266 | 62 ft | 0 kts | 89° |
| 2026-05-01 14:10 | 58.95454 | -2.90265 | 62 ft | 0 kts | 89° |
| 2026-05-01 14:11 | 58.95454 | -2.90264 | 62 ft | 0 kts | 89° |
| 2026-05-01 14:13 | 58.95454 | -2.90248 | 62 ft | 4 kts | 89° |
| 2026-05-01 14:13 | 58.95468 | -2.90185 | 62 ft | 11 kts | 44° |
| 2026-05-01 14:13 | 58.95510 | -2.90054 | 62 ft | 11 kts | 146° |
| 2026-05-01 14:13 | 58.95446 | -2.89945 | 62 ft | 11 kts | 98° |
| 2026-05-01 14:14 | 58.95491 | -2.89859 | 62 ft | 10 kts | 41° |
| 2026-05-01 14:14 | 58.95544 | -2.89769 | 62 ft | 11 kts | 40° |
| 2026-05-01 14:14 | 58.95601 | -2.89671 | 62 ft | 11 kts | 42° |
| 2026-05-01 14:14 | 58.95661 | -2.89567 | 62 ft | 12 kts | 42° |
| 2026-05-01 14:15 | 58.95723 | -2.89458 | 62 ft | 12 kts | 41° |
| 2026-05-01 14:15 | 58.95787 | -2.89349 | 62 ft | 13 kts | 39° |
| 2026-05-01 14:15 | 58.95820 | -2.89413 | 62 ft | 13 kts | 266° |
| 2026-05-01 14:15 | 58.95810 | -2.89847 | 62 ft | 54 kts | 270° |
| 2026-05-01 14:16 | 58.95778 | -2.90765 | 194 ft | 70 kts | 265° |
| 2026-05-01 14:16 | 58.95722 | -2.91668 | 419 ft | 70 kts | 264° |
| 2026-05-01 14:16 | 58.95642 | -2.92573 | 666 ft | 64 kts | 259° |
| 2026-05-01 14:16 | 58.95597 | -2.93449 | 846 ft | 68 kts | 266° |
| 2026-05-01 14:17 | 58.95558 | -2.94417 | 1012 ft | 76 kts | 266° |
| 2026-05-01 14:17 | 58.95548 | -2.95504 | 1172 ft | 86 kts | 283° |
| 2026-05-01 14:17 | 58.95912 | -2.96438 | 1347 ft | 94 kts | 333° |
| 2026-05-01 14:17 | 58.96566 | -2.96726 | 1509 ft | 97 kts | 351° |
| 2026-05-01 14:18 | 58.97234 | -2.96915 | 1640 ft | 97 kts | 351° |
| 2026-05-01 14:18 | 58.97892 | -2.96698 | 1766 ft | 99 kts | 23° |
| 2026-05-01 14:18 | 58.98493 | -2.96056 | 1879 ft | 99 kts | 26° |
| 2026-05-01 14:18 | 58.98889 | -2.95618 | 1957 ft | 99 kts | 27° |
| 2026-05-01 14:19 | 58.99689 | -2.94746 | 2117 ft | 99 kts | 27° |
| 2026-05-01 14:19 | 59.00293 | -2.94110 | 2239 ft | 98 kts | 27° |
| 2026-05-01 14:19 | 59.00898 | -2.93485 | 2373 ft | 99 kts | 26° |
| 2026-05-01 14:19 | 59.01516 | -2.92845 | 2505 ft | 101 kts | 26° |
| 2026-05-01 14:20 | 59.02136 | -2.92204 | 2631 ft | 103 kts | 26° |
| 2026-05-01 14:20 | 59.03414 | -2.90878 | 2877 ft | 105 kts | 26° |
| 2026-05-01 14:20 | 59.04055 | -2.90212 | 2998 ft | 104 kts | 26° |
| 2026-05-01 14:21 | 59.04692 | -2.89548 | 3122 ft | 103 kts | 26° |
| 2026-05-01 14:21 | 59.05120 | -2.89100 | 3204 ft | 103 kts | 26° |
| 2026-05-01 14:21 | 59.05742 | -2.88444 | 3335 ft | 103 kts | 26° |
| 2026-05-01 14:22 | 59.07029 | -2.87081 | 3597 ft | 107 kts | 26° |
| 2026-05-01 14:22 | 59.07689 | -2.86379 | 3712 ft | 108 kts | 26° |
| 2026-05-01 14:22 | 59.08344 | -2.85676 | 3824 ft | 106 kts | 26° |
| 2026-05-01 14:22 | 59.08982 | -2.84989 | 3940 ft | 104 kts | 26° |
| 2026-05-01 14:23 | 59.09604 | -2.84312 | 4057 ft | 101 kts | 26° |
| 2026-05-01 14:23 | 59.10212 | -2.83648 | 4174 ft | 99 kts | 26° |
| 2026-05-01 14:23 | 59.10807 | -2.82989 | 4291 ft | 97 kts | 26° |
| 2026-05-01 14:23 | 59.11390 | -2.82341 | 4394 ft | 97 kts | 26° |
| 2026-05-01 14:24 | 59.11983 | -2.81678 | 4476 ft | 99 kts | 26° |
| 2026-05-01 14:24 | 59.12587 | -2.81004 | 4557 ft | 101 kts | 26° |
| 2026-05-01 14:24 | 59.13202 | -2.80318 | 4637 ft | 103 kts | 26° |
| 2026-05-01 14:24 | 59.13827 | -2.79620 | 4715 ft | 104 kts | 26° |
| 2026-05-01 14:25 | 59.14460 | -2.78913 | 4793 ft | 105 kts | 26° |
| 2026-05-01 14:25 | 59.15098 | -2.78199 | 4871 ft | 106 kts | 26° |
| 2026-05-01 14:25 | 59.15741 | -2.77475 | 4946 ft | 107 kts | 26° |
| 2026-05-01 14:25 | 59.16378 | -2.76754 | 5020 ft | 108 kts | 26° |
| 2026-05-01 14:26 | 59.17027 | -2.76017 | 5095 ft | 108 kts | 27° |
| 2026-05-01 14:26 | 59.18331 | -2.74539 | 5244 ft | 108 kts | 26° |
| 2026-05-01 14:26 | 59.18981 | -2.73797 | 5318 ft | 108 kts | 26° |
| 2026-05-01 14:27 | 59.19632 | -2.73055 | 5393 ft | 108 kts | 26° |
| 2026-05-01 14:27 | 59.20282 | -2.72313 | 5461 ft | 109 kts | 26° |
| 2026-05-01 14:27 | 59.20941 | -2.71553 | 5500 ft | 112 kts | 26° |
| 2026-05-01 14:28 | 59.22323 | -2.69969 | 5500 ft | 119 kts | 27° |
| 2026-05-01 14:28 | 59.23043 | -2.69148 | 5497 ft | 121 kts | 27° |
| 2026-05-01 14:28 | 59.23773 | -2.68316 | 5495 ft | 122 kts | 27° |
| 2026-05-01 14:28 | 59.24499 | -2.67491 | 5494 ft | 122 kts | 27° |
| 2026-05-01 14:29 | 59.25236 | -2.66654 | 5494 ft | 123 kts | 27° |
| 2026-05-01 14:29 | 59.25976 | -2.65818 | 5494 ft | 123 kts | 27° |
| 2026-05-01 14:30 | 59.28196 | -2.63306 | 5493 ft | 123 kts | 27° |
| 2026-05-01 14:30 | 59.28938 | -2.62465 | 5493 ft | 123 kts | 27° |
| 2026-05-01 14:30 | 59.29682 | -2.61619 | 5494 ft | 124 kts | 27° |
| 2026-05-01 14:31 | 59.31170 | -2.59925 | 5494 ft | 124 kts | 27° |
| 2026-05-01 14:31 | 59.31916 | -2.59076 | 5493 ft | 124 kts | 27° |
| 2026-05-01 14:31 | 59.32660 | -2.58228 | 5493 ft | 124 kts | 27° |
| 2026-05-01 14:31 | 59.33408 | -2.57378 | 5493 ft | 124 kts | 27° |
| 2026-05-01 14:32 | 59.34154 | -2.56527 | 5493 ft | 124 kts | 27° |
| 2026-05-01 14:32 | 59.34890 | -2.55690 | 5493 ft | 124 kts | 27° |
| 2026-05-01 14:32 | 59.35638 | -2.54843 | 5493 ft | 124 kts | 27° |
| 2026-05-01 14:32 | 59.36387 | -2.53996 | 5493 ft | 124 kts | 27° |
| 2026-05-01 14:33 | 59.37136 | -2.53147 | 5493 ft | 124 kts | 27° |
| 2026-05-01 14:33 | 59.37884 | -2.52299 | 5493 ft | 124 kts | 27° |
| 2026-05-01 14:33 | 59.38634 | -2.51450 | 5493 ft | 124 kts | 27° |
| 2026-05-01 14:33 | 59.39383 | -2.50602 | 5493 ft | 124 kts | 27° |
| 2026-05-01 14:34 | 59.40132 | -2.49752 | 5493 ft | 124 kts | 27° |
| 2026-05-01 14:34 | 59.40881 | -2.48903 | 5493 ft | 124 kts | 27° |
| 2026-05-01 14:34 | 59.41632 | -2.48052 | 5493 ft | 124 kts | 27° |
| 2026-05-01 14:34 | 59.42381 | -2.47202 | 5493 ft | 124 kts | 27° |
| 2026-05-01 14:35 | 59.43129 | -2.46354 | 5493 ft | 124 kts | 27° |
| 2026-05-01 14:35 | 59.43868 | -2.45515 | 5493 ft | 124 kts | 27° |
| 2026-05-01 14:35 | 59.44617 | -2.44665 | 5493 ft | 124 kts | 27° |
| 2026-05-01 14:35 | 59.45366 | -2.43815 | 5493 ft | 124 kts | 27° |
| 2026-05-01 14:36 | 59.46116 | -2.42964 | 5493 ft | 124 kts | 27° |
| 2026-05-01 14:36 | 59.46866 | -2.42112 | 5493 ft | 124 kts | 27° |
| 2026-05-01 14:36 | 59.47614 | -2.41262 | 5493 ft | 124 kts | 27° |
| 2026-05-01 14:36 | 59.48364 | -2.40410 | 5493 ft | 124 kts | 27° |
| 2026-05-01 14:37 | 59.49112 | -2.39560 | 5492 ft | 124 kts | 26° |
| 2026-05-01 14:37 | 59.49864 | -2.38703 | 5492 ft | 125 kts | 27° |
| 2026-05-01 14:37 | 59.50617 | -2.37848 | 5493 ft | 125 kts | 27° |
| 2026-05-01 14:37 | 59.51372 | -2.36990 | 5493 ft | 125 kts | 27° |
| 2026-05-01 14:38 | 59.52127 | -2.36133 | 5493 ft | 125 kts | 27° |
| 2026-05-01 14:38 | 59.52882 | -2.35275 | 5493 ft | 125 kts | 27° |
| 2026-05-01 14:38 | 59.53629 | -2.34427 | 5493 ft | 125 kts | 27° |
| 2026-05-01 14:38 | 59.54395 | -2.33557 | 5493 ft | 125 kts | 27° |
| 2026-05-01 14:39 | 59.55150 | -2.32698 | 5493 ft | 125 kts | 27° |
| 2026-05-01 14:39 | 59.55896 | -2.31850 | 5493 ft | 125 kts | 27° |
| 2026-05-01 14:39 | 59.56653 | -2.30990 | 5493 ft | 125 kts | 27° |
| 2026-05-01 14:39 | 59.57409 | -2.30130 | 5493 ft | 125 kts | 27° |
| 2026-05-01 14:40 | 59.58165 | -2.29271 | 5493 ft | 125 kts | 27° |
| 2026-05-01 14:40 | 59.58921 | -2.28411 | 5493 ft | 125 kts | 27° |
| 2026-05-01 14:40 | 59.59678 | -2.27550 | 5492 ft | 126 kts | 26° |
| 2026-05-01 14:40 | 59.60435 | -2.26684 | 5492 ft | 126 kts | 27° |
| 2026-05-01 14:41 | 59.61194 | -2.25815 | 5493 ft | 126 kts | 27° |
| 2026-05-01 14:41 | 59.61953 | -2.24946 | 5493 ft | 126 kts | 27° |
| 2026-05-01 14:41 | 59.62715 | -2.24075 | 5493 ft | 126 kts | 27° |
| 2026-05-01 14:41 | 59.63477 | -2.23203 | 5493 ft | 126 kts | 27° |
| 2026-05-01 14:42 | 59.64238 | -2.22331 | 5493 ft | 126 kts | 27° |
| 2026-05-01 14:42 | 59.64999 | -2.21460 | 5493 ft | 126 kts | 27° |
| 2026-05-01 14:42 | 59.65761 | -2.20587 | 5493 ft | 126 kts | 27° |
| 2026-05-01 14:42 | 59.66523 | -2.19714 | 5493 ft | 126 kts | 27° |
| 2026-05-01 14:43 | 59.67275 | -2.18853 | 5493 ft | 126 kts | 27° |
| 2026-05-01 14:43 | 59.68036 | -2.17981 | 5494 ft | 126 kts | 27° |
| 2026-05-01 14:43 | 59.68798 | -2.17113 | 5494 ft | 126 kts | 27° |
| 2026-05-01 14:43 | 59.69561 | -2.16244 | 5495 ft | 126 kts | 27° |
| 2026-05-01 14:44 | 59.70325 | -2.15374 | 5494 ft | 127 kts | 27° |
| 2026-05-01 14:44 | 59.71852 | -2.13634 | 5494 ft | 127 kts | 27° |
| 2026-05-01 14:44 | 59.72615 | -2.12766 | 5494 ft | 127 kts | 27° |
| 2026-05-01 14:45 | 59.73378 | -2.11895 | 5494 ft | 127 kts | 27° |
| 2026-05-01 14:45 | 59.74907 | -2.10148 | 5494 ft | 127 kts | 27° |
| 2026-05-01 14:45 | 59.75673 | -2.09270 | 5495 ft | 127 kts | 27° |
| 2026-05-01 14:46 | 59.76416 | -2.08305 | 5495 ft | 128 kts | 36° |
| 2026-05-01 14:46 | 59.77812 | -2.06137 | 5495 ft | 128 kts | 37° |
| 2026-05-01 14:46 | 59.78515 | -2.05042 | 5494 ft | 128 kts | 37° |
| 2026-05-01 14:47 | 59.79216 | -2.03947 | 5494 ft | 128 kts | 37° |
| 2026-05-01 14:47 | 59.79918 | -2.02852 | 5494 ft | 128 kts | 37° |
| 2026-05-01 14:47 | 59.80620 | -2.01756 | 5494 ft | 128 kts | 37° |
| 2026-05-01 14:48 | 59.82023 | -1.99565 | 5494 ft | 128 kts | 37° |
| 2026-05-01 14:48 | 59.82726 | -1.98467 | 5494 ft | 128 kts | 37° |
| 2026-05-01 14:48 | 59.84132 | -1.96272 | 5494 ft | 128 kts | 37° |
| 2026-05-01 14:49 | 59.85526 | -1.94092 | 5494 ft | 128 kts | 37° |
| 2026-05-01 14:49 | 59.86930 | -1.91897 | 5494 ft | 128 kts | 37° |
| 2026-05-01 14:50 | 59.87869 | -1.90428 | 5493 ft | 128 kts | 37° |
| 2026-05-01 14:50 | 59.89740 | -1.87500 | 5493 ft | 128 kts | 37° |
| 2026-05-01 14:51 | 59.90443 | -1.86399 | 5493 ft | 128 kts | 37° |
| 2026-05-01 14:51 | 59.91847 | -1.84201 | 5493 ft | 128 kts | 37° |
| 2026-05-01 14:52 | 59.93243 | -1.82013 | 5493 ft | 128 kts | 37° |
| 2026-05-01 14:52 | 59.93945 | -1.80913 | 5493 ft | 128 kts | 37° |
| 2026-05-01 14:52 | 59.95350 | -1.78711 | 5493 ft | 128 kts | 37° |
| 2026-05-01 14:53 | 59.96051 | -1.77611 | 5494 ft | 128 kts | 37° |
| 2026-05-01 14:53 | 59.96756 | -1.76506 | 5493 ft | 128 kts | 37° |
| 2026-05-01 14:53 | 59.97457 | -1.75406 | 5493 ft | 128 kts | 37° |
| 2026-05-01 14:53 | 59.98160 | -1.74303 | 5493 ft | 128 kts | 37° |
| 2026-05-01 14:54 | 59.98853 | -1.73215 | 5494 ft | 128 kts | 37° |
| 2026-05-01 14:54 | 59.99555 | -1.72114 | 5494 ft | 128 kts | 37° |
| 2026-05-01 14:54 | 60.00257 | -1.71011 | 5494 ft | 128 kts | 37° |
| 2026-05-01 14:54 | 60.00959 | -1.69909 | 5494 ft | 128 kts | 37° |
| 2026-05-01 14:55 | 60.01660 | -1.68807 | 5493 ft | 127 kts | 37° |
| 2026-05-01 14:55 | 60.02341 | -1.67736 | 5488 ft | 122 kts | 37° |
| 2026-05-01 14:55 | 60.03009 | -1.66683 | 5437 ft | 124 kts | 37° |
| 2026-05-01 14:55 | 60.03706 | -1.65589 | 5324 ft | 129 kts | 37° |
| 2026-05-01 14:56 | 60.04424 | -1.64464 | 5203 ft | 132 kts | 37° |
| 2026-05-01 14:56 | 60.05147 | -1.63333 | 5079 ft | 131 kts | 37° |
| 2026-05-01 14:56 | 60.05865 | -1.62210 | 4954 ft | 131 kts | 37° |
| 2026-05-01 14:56 | 60.06581 | -1.61094 | 4829 ft | 130 kts | 37° |
| 2026-05-01 14:57 | 60.07295 | -1.59985 | 4704 ft | 130 kts | 37° |
| 2026-05-01 14:57 | 60.08715 | -1.57785 | 4455 ft | 128 kts | 37° |
| 2026-05-01 14:57 | 60.09414 | -1.56705 | 4328 ft | 125 kts | 37° |
| 2026-05-01 14:58 | 60.10089 | -1.55662 | 4203 ft | 124 kts | 37° |
| 2026-05-01 14:58 | 60.10769 | -1.54616 | 4078 ft | 123 kts | 37° |
| 2026-05-01 14:58 | 60.11445 | -1.53578 | 3952 ft | 122 kts | 37° |
| 2026-05-01 14:58 | 60.12115 | -1.52548 | 3828 ft | 121 kts | 37° |
| 2026-05-01 14:59 | 60.12782 | -1.51526 | 3703 ft | 120 kts | 37° |
| 2026-05-01 14:59 | 60.13448 | -1.50508 | 3578 ft | 120 kts | 37° |
| 2026-05-01 14:59 | 60.14110 | -1.49499 | 3453 ft | 119 kts | 37° |
| 2026-05-01 14:59 | 60.14769 | -1.48496 | 3328 ft | 119 kts | 37° |
| 2026-05-01 15:00 | 60.16079 | -1.46511 | 3078 ft | 117 kts | 37° |
| 2026-05-01 15:00 | 60.16729 | -1.45528 | 2954 ft | 117 kts | 37° |
| 2026-05-01 15:00 | 60.17377 | -1.44549 | 2828 ft | 117 kts | 37° |
| 2026-05-01 15:01 | 60.18024 | -1.43570 | 2704 ft | 116 kts | 37° |
| 2026-05-01 15:01 | 60.18668 | -1.42595 | 2579 ft | 116 kts | 37° |
| 2026-05-01 15:01 | 60.19310 | -1.41618 | 2454 ft | 116 kts | 37° |
| 2026-05-01 15:01 | 60.19943 | -1.40615 | 2329 ft | 116 kts | 41° |
| 2026-05-01 15:02 | 60.20542 | -1.39542 | 2205 ft | 115 kts | 41° |
| 2026-05-01 15:02 | 60.20736 | -1.39192 | 2164 ft | 115 kts | 41° |
| 2026-05-01 15:02 | 60.21735 | -1.37384 | 1955 ft | 115 kts | 41° |
| 2026-05-01 15:02 | 60.22329 | -1.36303 | 1830 ft | 115 kts | 42° |
| 2026-05-01 15:03 | 60.22921 | -1.35225 | 1706 ft | 114 kts | 42° |
| 2026-05-01 15:03 | 60.23504 | -1.34158 | 1582 ft | 112 kts | 41° |
| 2026-05-01 15:03 | 60.24069 | -1.33107 | 1458 ft | 112 kts | 41° |
| 2026-05-01 15:03 | 60.24637 | -1.32048 | 1357 ft | 110 kts | 42° |
| 2026-05-01 15:04 | 60.25188 | -1.31019 | 1297 ft | 107 kts | 41° |
| 2026-05-01 15:04 | 60.25720 | -1.30024 | 1240 ft | 101 kts | 41° |
| 2026-05-01 15:04 | 60.26220 | -1.29088 | 1193 ft | 95 kts | 41° |
| 2026-05-01 15:04 | 60.26690 | -1.28206 | 1182 ft | 89 kts | 41° |
| 2026-05-01 15:05 | 60.27057 | -1.27256 | 1168 ft | 87 kts | 79° |
| 2026-05-01 15:05 | 60.26800 | -1.26288 | 1183 ft | 78 kts | 146° |
| 2026-05-01 15:05 | 60.26377 | -1.25686 | 1243 ft | 74 kts | 147° |
| 2026-05-01 15:05 | 60.25938 | -1.25064 | 1224 ft | 80 kts | 147° |
| 2026-05-01 15:06 | 60.25476 | -1.24412 | 1199 ft | 82 kts | 147° |
| 2026-05-01 15:06 | 60.25013 | -1.23757 | 1189 ft | 81 kts | 147° |
| 2026-05-01 15:06 | 60.24526 | -1.23192 | 1164 ft | 82 kts | 157° |
| 2026-05-01 15:06 | 60.23992 | -1.22816 | 1096 ft | 81 kts | 168° |
| 2026-05-01 15:07 | 60.23428 | -1.22635 | 990 ft | 83 kts | 177° |
| 2026-05-01 15:07 | 60.22852 | -1.22618 | 865 ft | 83 kts | 186° |
| 2026-05-01 15:07 | 60.22281 | -1.22808 | 715 ft | 85 kts | 195° |
| 2026-05-01 15:07 | 60.21720 | -1.23110 | 607 ft | 82 kts | 196° |
| 2026-05-01 15:08 | 60.21164 | -1.23398 | 506 ft | 83 kts | 195° |
| 2026-05-01 15:08 | 60.20598 | -1.23667 | 391 ft | 82 kts | 194° |
| 2026-05-01 15:08 | 60.20058 | -1.23927 | 245 ft | 81 kts | 196° |
| 2026-05-01 15:08 | 60.19517 | -1.24201 | 80 ft | 78 kts | 194° |
| 2026-05-01 15:09 | 60.19219 | -1.24347 | 47 ft | 55 kts | 193° |
| 2026-05-01 15:09 | 60.18987 | -1.24455 | 47 ft | 16 kts | 198° |
| 2026-05-01 15:09 | 60.18931 | -1.24480 | 47 ft | 2 kts | 186° |
| 2026-05-01 15:09 | 60.18912 | -1.24488 | 47 ft | 2 kts | 196° |
| 2026-05-01 15:10 | 60.18908 | -1.24490 | 47 ft | 1 kts | 197° |
| 2026-05-01 15:10 | 60.18911 | -1.24586 | 47 ft | 8 kts | 322° |
| 2026-05-01 15:10 | 60.18933 | -1.24611 | 47 ft | 0 kts | 56° |
| 2026-05-01 15:11 | 60.21052 | -1.23452 | 483 ft | 83 kts | 195° |
| 2026-05-01 15:12 | 60.20488 | -1.23718 | 369 ft | 80 kts | 195° |
| 2026-05-01 15:12 | 60.19416 | -1.24246 | 58 ft | 71 kts | 196° |
| 2026-05-01 15:12 | 60.19056 | -1.24423 | 47 ft | 30 kts | 194° |
| 2026-05-01 15:13 | 60.18910 | -1.24489 | 47 ft | 1 kts | 197° |
| 2026-05-01 15:14 | 60.18893 | -1.24546 | 47 ft | 8 kts | 295° |
| 2026-05-01 15:14 | 60.18929 | -1.24615 | 47 ft | 4 kts | 342° |
| 2026-05-01 15:14 | 60.18933 | -1.24611 | 47 ft | 0 kts | 56° |